»·PEaware :: SKY123 KMMV-KTMK

SKY123 :: KMMV-KTMK

FLIGHT INFORMATION

Flight Status: Arrived
Operator:
Sky High Charters
More flights by this operator :: More flights under this callsign
Pilot: Tom L. (6372)
Aircraft: BEECH AIRCRAFT DEBONAIR BONANZA
(BE33)
More flights by this aircraft type
Origin: KMMV McMinnville Mun
United States
Destination: KTMK Tillamook
United States
More flights between these airports :: More routes between these airports
Route: UGB JEQEF
File this flight plan on PilotEdge
Remarks:
Altitude:
(Current/Filed)
6,000ft
Speed:
(Current/Filed)
145kts
Departed: 27-Nov-18 12:15 PM
Arrived: 27-Nov-18 12:50 PM
Distance/Time
Traveled:
32nm/0:35
Distance/Time
To Go:
Arrived

Flight Plot

Page will automatically refresh every two minutes.

Flight plan parsing failed; only flown route is shown


Map Options




Map Legend


Flown Route
Filed Route
Departure Airport
Arrival Airport
Navaid (VOR, NDB)
Fix

Horizontal Profiles

Position Reports

Time Latitude Longitude Heading Altitude Ground
Speed
27-Nov-18 11:58 45.197870 -123.139033 189 153ft 0kts
27-Nov-18 11:59 45.197865 -123.139034 188 153ft 0kts
27-Nov-18 12:00 45.197860 -123.139035 188 153ft 0kts
27-Nov-18 12:01 45.197855 -123.139036 188 153ft 0kts
27-Nov-18 12:02 45.197850 -123.139037 188 153ft 0kts
27-Nov-18 12:03 45.197845 -123.139038 188 153ft 0kts
27-Nov-18 12:04 45.197839 -123.139039 187 153ft 0kts
27-Nov-18 12:05 45.197192 -123.137991 132 152ft 14kts
27-Nov-18 12:06 45.197196 -123.137097 66 153ft 0kts
27-Nov-18 12:07 45.197369 -123.136696 57 153ft 9kts
27-Nov-18 12:08 45.199345 -123.133819 35 153ft 0kts
27-Nov-18 12:09 45.199351 -123.133813 35 153ft 0kts
27-Nov-18 12:10 45.200247 -123.130919 170 153ft 0kts
27-Nov-18 12:11 45.200241 -123.130918 169 153ft 0kts
27-Nov-18 12:12 45.200236 -123.130916 169 153ft 0kts
27-Nov-18 12:13 45.200231 -123.130914 169 153ft 0kts
27-Nov-18 12:14 45.200226 -123.130913 168 152ft 0kts
27-Nov-18 12:15 45.200221 -123.130911 168 152ft 0kts
27-Nov-18 12:16 45.200216 -123.130909 168 153ft 0kts
27-Nov-18 12:17 45.200211 -123.130908 168 153ft 0kts
27-Nov-18 12:18 45.191521 -123.150914 237 536ft 109kts
27-Nov-18 12:19 45.171406 -123.161885 138 2010ft 114kts
27-Nov-18 12:20 45.178077 -123.115946 55 3248ft 141kts
27-Nov-18 12:21 45.200890 -123.072033 48 4356ft 146kts
27-Nov-18 12:22 45.232603 -123.045994 2 5499ft 122kts
27-Nov-18 12:23 45.267768 -123.028484 32 6133ft 151kts
27-Nov-18 12:24 45.311429 -122.999123 20 6067ft 189kts
27-Nov-18 12:25 45.360828 -122.998206 326 6141ft 177kts
27-Nov-18 12:26 45.386496 -123.050868 295 6109ft 163kts
27-Nov-18 12:27 45.406039 -123.110576 288 5980ft 172kts
27-Nov-18 12:28 45.422446 -123.155754 292 5970ft 156kts
27-Nov-18 12:29 45.443436 -123.210382 291 5985ft 146kts
27-Nov-18 12:30 45.463535 -123.262516 292 6000ft 158kts
27-Nov-18 12:31 45.484574 -123.317036 291 5988ft 161kts
27-Nov-18 12:32 45.504363 -123.368222 290 5974ft 140kts
27-Nov-18 12:33 45.522845 -123.416494 291 5991ft 136kts
27-Nov-18 12:34 45.541085 -123.464062 290 5990ft 135kts
27-Nov-18 12:35 45.559175 -123.511294 290 5987ft 136kts
27-Nov-18 12:36 45.577298 -123.558723 290 5993ft 136kts
27-Nov-18 12:37 45.595556 -123.606510 291 5994ft 137kts
27-Nov-18 12:38 45.613712 -123.654275 291 5996ft 137kts
27-Nov-18 12:39 45.632021 -123.702306 290 5988ft 136kts
27-Nov-18 12:40 45.650062 -123.749792 289 5980ft 131kts
27-Nov-18 12:41 45.647722 -123.791468 212 5578ft 122kts
27-Nov-18 12:42 45.622176 -123.811077 303 5451ft 124kts
27-Nov-18 12:43 45.642146 -123.847972 241 5285ft 117kts
27-Nov-18 12:44 45.628581 -123.896049 248 4695ft 135kts
27-Nov-18 12:45 45.613366 -123.942715 197 4446ft 130kts
27-Nov-18 12:46 45.580616 -123.914365 160 4231ft 147kts
27-Nov-18 12:47 45.542234 -123.894633 162 3614ft 133kts
27-Nov-18 12:48 45.513686 -123.876287 165 2501ft 100kts
27-Nov-18 12:49 45.491307 -123.861763 167 1463ft 88kts
27-Nov-18 12:50 45.468449 -123.844903 159 1165ft 86kts
27-Nov-18 12:51 45.446011 -123.832152 164 739ft 87kts
27-Nov-18 12:52 45.424422 -123.818976 161 64ft 78kts
27-Nov-18 12:53 45.417048 -123.814680 211 40ft 8kts
27-Nov-18 12:54 45.418867 -123.817959 347 40ft 0kts
27-Nov-18 12:55 45.418867 -123.817959 347 40ft 0kts
27-Nov-18 12:56 45.418867 -123.817959 347 40ft 0kts
27-Nov-18 12:57 45.418867 -123.817959 347 40ft 0kts
27-Nov-18 12:58 45.418867 -123.817959 347 40ft 0kts
27-Nov-18 12:59 45.418867 -123.817959 347 40ft 0kts
27-Nov-18 13:00 45.418867 -123.817959 347 40ft 0kts
27-Nov-18 13:01 45.418867 -123.817959 347 40ft 0kts
27-Nov-18 13:02 45.418867 -123.817959 347 40ft 0kts
27-Nov-18 13:03 45.418867 -123.817959 347 40ft 0kts
27-Nov-18 13:04 45.418867 -123.817959 347 40ft 0kts
27-Nov-18 13:05 45.418867 -123.817959 347 40ft 0kts
27-Nov-18 13:06 45.418867 -123.817959 347 40ft 0kts
27-Nov-18 13:07 45.418867 -123.817959 347 40ft 0kts
27-Nov-18 13:08 45.418867 -123.817959 347 40ft 0kts

Navigation Log

Ident Type
Flight plan parsing failed, navigation log unavailable